createdAt,value
2023-04-06T00:00:19.705Z,10.80
2023-04-06T00:01:24.703Z,10.76
2023-04-06T00:02:28.404Z,10.74
2023-04-06T00:03:31.831Z,10.58
2023-04-06T00:04:38.433Z,10.53
2023-04-06T00:05:42.233Z,10.56
2023-04-06T00:06:45.736Z,10.54
2023-04-06T00:07:51.248Z,10.57
2023-04-06T00:08:54.288Z,10.60
2023-04-06T00:09:57.521Z,10.50
2023-04-06T00:11:01.326Z,10.44
2023-04-06T00:12:04.829Z,10.42
2023-04-06T00:13:08.441Z,10.37
2023-04-06T00:14:11.722Z,10.29
2023-04-06T00:15:17.706Z,10.30
2023-04-06T00:16:24.329Z,10.28
2023-04-06T00:17:26.911Z,10.37
2023-04-06T00:18:31.382Z,10.33
2023-04-06T00:19:34.898Z,10.38
2023-04-06T00:20:38.120Z,10.38
2023-04-06T00:21:40.510Z,10.49
2023-04-06T00:22:44.995Z,10.38
2023-04-06T00:23:47.890Z,10.42
2023-04-06T00:24:51.698Z,10.39
2023-04-06T00:25:54.887Z,10.44
2023-04-06T00:26:58.128Z,10.39
2023-04-06T00:28:01.893Z,10.44
2023-04-06T00:29:04.782Z,10.47
2023-04-06T00:30:09.611Z,10.47
2023-04-06T00:31:12.879Z,10.48
2023-04-06T00:32:16.454Z,10.44
2023-04-06T00:33:19.525Z,10.38
2023-04-06T00:34:22.849Z,10.41
2023-04-06T00:35:26.337Z,10.42
2023-04-06T00:36:29.940Z,10.38
2023-04-06T00:37:33.758Z,10.30
2023-04-06T00:38:40.520Z,10.22
2023-04-06T00:39:44.127Z,10.17
2023-04-06T00:40:46.449Z,10.17
2023-04-06T00:41:51.850Z,10.24
2023-04-06T00:42:55.876Z,10.23
2023-04-06T00:43:59.177Z,10.30
2023-04-06T00:45:04.382Z,10.34
2023-04-06T00:46:08.195Z,10.31
2023-04-06T00:47:16.997Z,10.20
2023-04-06T00:48:21.546Z,10.27
2023-04-06T00:49:24.947Z,10.29
2023-04-06T00:50:28.659Z,10.25
2023-04-06T00:51:33.200Z,10.29
2023-04-06T00:52:37.344Z,10.28
2023-04-06T00:53:40.525Z,10.26
2023-04-06T00:54:44.275Z,10.31
2023-04-06T00:55:47.751Z,10.35
2023-04-06T00:56:51.290Z,10.32
2023-04-06T00:57:56.122Z,10.36
2023-04-06T00:59:00.800Z,10.36
2023-04-06T01:00:05.210Z,10.32
2023-04-06T01:01:09.578Z,10.28
2023-04-06T01:02:12.848Z,10.45
2023-04-06T01:03:21.214Z,10.34
2023-04-06T01:04:24.768Z,10.40
2023-04-06T01:05:28.946Z,10.39
2023-04-06T01:06:34.519Z,10.37
2023-04-06T01:07:38.008Z,10.26
2023-04-06T01:08:46.638Z,10.22
2023-04-06T01:09:56.726Z,10.11
2023-04-06T01:11:05.705Z,10.12
2023-04-06T01:12:11.350Z,10.14
2023-04-06T01:13:17.492Z,10.16
2023-04-06T01:14:26.588Z,10.16
2023-04-06T01:15:34.759Z,10.22
2023-04-06T01:16:39.473Z,10.20
2023-04-06T01:17:45.446Z,10.13
2023-04-06T01:18:52.553Z,10.08
2023-04-06T01:19:58.957Z,10.17
2023-04-06T01:21:04.121Z,10.16
2023-04-06T01:22:07.026Z,10.14
2023-04-06T01:23:12.148Z,10.19
2023-04-06T01:24:18.539Z,10.25
2023-04-06T01:25:33.592Z,10.33
2023-04-06T01:26:41.637Z,10.21
2023-04-06T01:27:45.574Z,10.27
2023-04-06T01:28:50.765Z,10.29
2023-04-06T01:29:55.752Z,10.21
2023-04-06T01:31:00.780Z,10.19
2023-04-06T01:32:11.653Z,10.19
2023-04-06T01:33:15.689Z,10.15
2023-04-06T01:34:22.044Z,10.06
2023-04-06T01:35:27.470Z,10.10
2023-04-06T01:36:32.663Z,10.11
2023-04-06T01:37:38.219Z,10.09
2023-04-06T01:38:42.962Z,10.14
2023-04-06T01:39:51.193Z,10.13
2023-04-06T01:40:56.667Z,10.18
2023-04-06T01:42:00.685Z,10.25
2023-04-06T01:43:04.887Z,10.15
2023-04-06T01:44:09.937Z,10.13
2023-04-06T01:45:13.145Z,10.18
2023-04-06T01:46:16.461Z,10.29
2023-04-06T01:47:20.127Z,10.18
2023-04-06T01:48:23.604Z,10.25
2023-04-06T01:49:27.110Z,10.26
2023-04-06T01:50:32.474Z,10.28
2023-04-06T01:51:36.194Z,10.22
2023-04-06T01:52:40.973Z,10.20
2023-04-06T01:53:46.024Z,10.12
2023-04-06T01:54:49.269Z,10.04
2023-04-06T01:55:53.971Z,10.15
2023-04-06T01:57:03.560Z,10.01
2023-04-06T01:58:17.487Z,9.98
2023-04-06T01:59:20.801Z,10.11
2023-04-06T02:00:25.921Z,10.13
2023-04-06T02:01:29.274Z,10.20
2023-04-06T02:02:32.694Z,10.09
2023-04-06T02:03:37.955Z,10.08
2023-04-06T02:04:43.059Z,10.12
2023-04-06T02:05:48.050Z,10.16
2023-04-06T02:06:56.025Z,10.12
2023-04-06T02:08:00.052Z,10.10
2023-04-06T02:09:10.813Z,10.12
2023-04-06T02:10:14.726Z,10.14
2023-04-06T02:11:17.798Z,10.17
2023-04-06T02:12:22.986Z,10.08
2023-04-06T02:13:25.829Z,10.12
2023-04-06T02:14:29.650Z,10.16
2023-04-06T02:15:36.722Z,10.19
2023-04-06T02:16:40.453Z,10.24
2023-04-06T02:17:44.283Z,10.32
2023-04-06T02:18:47.466Z,10.40
2023-04-06T02:19:53.037Z,10.27
2023-04-06T02:20:57.507Z,10.25
2023-04-06T02:22:00.728Z,10.19
2023-04-06T02:23:07.021Z,10.17
2023-04-06T02:24:10.573Z,10.29
2023-04-06T02:25:13.004Z,10.31
2023-04-06T02:26:15.392Z,10.30
2023-04-06T02:27:18.916Z,10.23
2023-04-06T02:28:23.799Z,10.21
2023-04-06T02:29:27.314Z,10.22
2023-04-06T02:30:33.707Z,10.23
2023-04-06T02:31:37.073Z,10.32
2023-04-06T02:32:40.730Z,10.26
2023-04-06T02:33:45.778Z,10.30
2023-04-06T02:34:50.382Z,10.31
2023-04-06T02:35:55.012Z,10.30
2023-04-06T02:36:59.177Z,10.31
2023-04-06T02:38:02.757Z,10.18
2023-04-06T02:39:06.093Z,10.17
2023-04-06T02:40:10.723Z,10.28
2023-04-06T02:41:15.777Z,10.20
2023-04-06T02:42:19.194Z,10.10
2023-04-06T02:43:23.509Z,10.18
2023-04-06T02:44:31.017Z,10.20
2023-04-06T02:45:33.695Z,10.21
2023-04-06T02:46:37.082Z,10.25
2023-04-06T02:47:41.554Z,10.26
2023-04-06T02:48:45.166Z,10.27
2023-04-06T02:49:48.721Z,10.28
2023-04-06T02:50:52.611Z,10.23
2023-04-06T02:51:56.014Z,10.28
2023-04-06T02:53:01.136Z,10.28
2023-04-06T02:54:03.982Z,10.20
2023-04-06T02:55:08.129Z,10.31
2023-04-06T02:56:11.862Z,10.35
2023-04-06T02:57:17.172Z,10.30
2023-04-06T02:58:22.486Z,10.17
2023-04-06T02:59:28.576Z,10.18
2023-04-06T03:00:38.628Z,10.18
2023-04-06T03:01:41.969Z,10.17
2023-04-06T03:02:45.189Z,10.21
2023-04-06T03:03:51.421Z,10.26
2023-04-06T03:04:55.813Z,10.28
2023-04-06T03:06:01.642Z,10.32
2023-04-06T03:07:06.728Z,10.29
2023-04-06T03:08:11.967Z,10.32
2023-04-06T03:09:16.870Z,10.37
2023-04-06T03:10:20.672Z,10.41
2023-04-06T03:11:24.406Z,10.33
2023-04-06T03:12:28.215Z,10.39
2023-04-06T03:13:52.240Z,10.38
2023-04-06T03:14:54.799Z,10.29
2023-04-06T03:15:58.863Z,10.40
2023-04-06T03:17:02.804Z,10.37
2023-04-06T03:18:07.963Z,10.29
2023-04-06T03:19:13.269Z,10.27
2023-04-06T03:20:16.854Z,10.24
2023-04-06T03:21:21.034Z,10.18
2023-04-06T03:22:26.067Z,10.23
2023-04-06T03:23:28.613Z,10.09
2023-04-06T03:24:36.304Z,10.15
2023-04-06T03:25:41.132Z,10.22
2023-04-06T03:26:46.190Z,10.20
2023-04-06T03:27:49.452Z,10.18
2023-04-06T03:28:54.240Z,10.24
2023-04-06T03:30:00.334Z,10.14
2023-04-06T03:31:06.009Z,10.17
2023-04-06T03:32:14.020Z,10.12
2023-04-06T03:33:18.388Z,10.19
2023-04-06T03:34:24.053Z,10.13
2023-04-06T03:35:27.256Z,10.11
2023-04-06T03:36:30.246Z,10.28
2023-04-06T03:37:33.939Z,10.27
2023-04-06T03:38:40.140Z,10.25
2023-04-06T03:39:45.391Z,10.21
2023-04-06T03:40:50.472Z,10.20
2023-04-06T03:41:55.096Z,10.21
2023-04-06T03:43:05.276Z,10.21
2023-04-06T03:44:09.879Z,10.26
2023-04-06T03:45:18.824Z,10.23
2023-04-06T03:46:24.253Z,10.24
2023-04-06T03:47:29.610Z,10.35
2023-04-06T03:48:34.801Z,10.33
2023-04-06T03:49:40.675Z,10.39
2023-04-06T03:50:45.733Z,10.38
2023-04-06T03:51:49.077Z,10.41
2023-04-06T03:52:52.368Z,10.42
2023-04-06T03:53:56.162Z,10.47
2023-04-06T03:54:59.514Z,10.52
2023-04-06T03:56:04.651Z,10.60
2023-04-06T03:57:07.068Z,10.53
2023-04-06T03:58:09.476Z,10.54
2023-04-06T03:59:12.739Z,10.47
2023-04-06T04:00:16.251Z,10.43
2023-04-06T04:01:18.793Z,10.46
2023-04-06T04:02:21.929Z,10.50
2023-04-06T04:03:27.923Z,10.51
2023-04-06T04:04:31.310Z,10.41
2023-04-06T04:05:35.898Z,10.55
2023-04-06T04:06:42.294Z,10.56
2023-04-06T04:07:45.701Z,10.56
2023-04-06T04:08:49.076Z,10.50
2023-04-06T04:09:52.295Z,10.65
2023-04-06T04:10:56.524Z,10.65
2023-04-06T04:11:59.778Z,10.61
2023-04-06T04:13:03.560Z,10.60
2023-04-06T04:14:07.880Z,10.56
2023-04-06T04:15:10.364Z,10.51
2023-04-06T04:16:13.720Z,10.46
2023-04-06T04:17:19.678Z,10.51
2023-04-06T04:18:22.942Z,10.55
2023-04-06T04:19:27.717Z,10.62
2023-04-06T04:20:32.486Z,10.63
2023-04-06T04:21:38.335Z,10.64
2023-04-06T04:22:43.813Z,10.69
2023-04-06T04:23:46.772Z,10.63
2023-04-06T04:24:50.240Z,10.66
2023-04-06T04:25:54.495Z,10.68
2023-04-06T04:26:57.478Z,10.64
2023-04-06T04:28:00.881Z,10.69
2023-04-06T04:29:04.705Z,10.60
2023-04-06T04:30:10.008Z,10.54
2023-04-06T04:31:13.317Z,10.52
2023-04-06T04:32:18.889Z,10.60
2023-04-06T04:33:24.817Z,10.69
2023-04-06T04:34:29.520Z,10.63
2023-04-06T04:35:32.769Z,10.66
2023-04-06T04:36:35.092Z,10.59
2023-04-06T04:37:40.676Z,10.58
2023-04-06T04:38:44.424Z,10.63
2023-04-06T04:39:47.896Z,10.68
2023-04-06T04:40:52.133Z,10.68
2023-04-06T04:41:55.335Z,10.64
2023-04-06T04:42:58.522Z,10.68
2023-04-06T04:44:03.536Z,10.70
2023-04-06T04:45:07.054Z,10.70
2023-04-06T04:46:11.339Z,10.70
2023-04-06T04:47:18.218Z,10.82
2023-04-06T04:48:24.024Z,10.87
2023-04-06T04:49:33.829Z,10.89
2023-04-06T04:50:37.261Z,10.94
2023-04-06T04:51:40.582Z,10.85
2023-04-06T04:52:46.077Z,10.81
2023-04-06T04:53:51.894Z,10.94
2023-04-06T04:54:58.979Z,10.95
2023-04-06T04:56:05.005Z,10.90
2023-04-06T04:57:10.786Z,10.99
2023-04-06T04:58:21.180Z,10.93
2023-04-06T04:59:28.910Z,10.87
2023-04-06T05:00:34.252Z,10.85
2023-04-06T05:01:47.698Z,10.80
2023-04-06T05:02:42.908Z,10.85
2023-04-06T05:03:49.688Z,10.86
2023-04-06T05:04:53.670Z,10.94
2023-04-06T05:05:58.872Z,10.85
2023-04-06T05:07:09.848Z,10.87
2023-04-06T05:08:15.405Z,10.88
2023-04-06T05:09:20.413Z,10.70
2023-04-06T05:11:37.889Z,10.96
2023-04-06T05:12:41.073Z,10.95
2023-04-06T05:13:46.904Z,10.99
2023-04-06T05:14:51.987Z,10.93
2023-04-06T05:15:56.123Z,10.95
2023-04-06T05:17:04.117Z,10.95
2023-04-06T05:18:09.525Z,10.91
2023-04-06T05:19:13.193Z,10.96
2023-04-06T05:20:18.675Z,11.08
2023-04-06T05:21:25.474Z,11.04
2023-04-06T05:22:30.477Z,11.14
2023-04-06T05:23:41.740Z,11.07
2023-04-06T05:24:44.799Z,11.10
2023-04-06T05:25:48.210Z,11.18
2023-04-06T05:26:55.997Z,11.25
2023-04-06T05:28:00.968Z,11.25
2023-04-06T05:29:09.138Z,11.31
2023-04-06T05:30:15.994Z,11.39
2023-04-06T05:31:21.014Z,11.33
2023-04-06T05:32:27.209Z,11.23
2023-04-06T05:33:31.319Z,11.18
2023-04-06T05:34:42.873Z,11.24
2023-04-06T05:35:46.126Z,11.39
2023-04-06T05:36:50.099Z,11.38
2023-04-06T05:37:57.035Z,11.47
2023-04-06T05:39:01.937Z,11.34
2023-04-06T05:40:07.925Z,11.69
2023-04-06T05:41:12.974Z,11.81
2023-04-06T05:42:16.800Z,11.98
2023-04-06T05:43:25.750Z,12.13
2023-04-06T05:44:31.032Z,12.26
2023-04-06T05:45:47.587Z,12.31
2023-04-06T05:46:51.463Z,12.30
2023-04-06T05:47:55.773Z,12.64
2023-04-06T05:49:06.709Z,12.84
2023-04-06T05:50:12.516Z,12.57
2023-04-06T05:51:16.337Z,12.51
2023-04-06T05:52:20.552Z,12.49
2023-04-06T05:53:25.801Z,12.46
2023-04-06T05:54:30.759Z,12.50
2023-04-06T05:55:36.260Z,12.49
2023-04-06T05:56:44.674Z,12.38
2023-04-06T05:57:49.537Z,12.37
2023-04-06T05:58:57.678Z,12.27
2023-04-06T06:00:09.176Z,12.14
2023-04-06T06:01:20.427Z,12.18
2023-04-06T06:02:24.410Z,12.24
2023-04-06T06:03:31.390Z,12.30
2023-04-06T06:04:34.934Z,12.47
2023-04-06T06:05:39.758Z,12.32
2023-04-06T06:06:45.150Z,12.58
2023-04-06T06:07:52.519Z,12.88
2023-04-06T06:08:58.414Z,13.31
2023-04-06T06:10:03.697Z,13.42
2023-04-06T06:11:08.877Z,13.48
2023-04-06T06:12:14.664Z,13.36
2023-04-06T06:13:18.322Z,13.54
2023-04-06T06:14:21.077Z,13.57
2023-04-06T06:15:25.514Z,13.28
2023-04-06T06:16:29.977Z,13.57
2023-04-06T06:17:36.679Z,13.80
2023-04-06T06:18:39.638Z,14.36
2023-04-06T06:19:44.886Z,14.61
2023-04-06T06:20:48.370Z,14.97
2023-04-06T06:21:53.680Z,15.31
2023-04-06T06:22:56.512Z,14.91
2023-04-06T06:24:02.532Z,14.53
2023-04-06T06:25:06.713Z,14.44
2023-04-06T06:26:10.391Z,14.22
2023-04-06T06:27:14.309Z,13.83
2023-04-06T06:28:20.348Z,13.68
2023-04-06T06:29:25.491Z,13.62
2023-04-06T06:30:32.028Z,13.61
2023-04-06T06:31:37.726Z,13.69
2023-04-06T06:32:42.008Z,13.46
2023-04-06T06:33:45.571Z,13.75
2023-04-06T06:34:49.393Z,13.70
2023-04-06T06:35:52.864Z,14.17
2023-04-06T06:36:55.880Z,14.63
2023-04-06T06:37:59.515Z,14.40
2023-04-06T06:39:05.074Z,14.21
2023-04-06T06:40:08.937Z,13.84
2023-04-06T06:41:13.494Z,13.75
2023-04-06T06:42:16.635Z,13.78
2023-04-06T06:43:31.222Z,13.61
2023-04-06T06:44:38.074Z,13.35
2023-04-06T06:45:44.646Z,13.25
2023-04-06T06:46:51.037Z,13.11
2023-04-06T06:47:56.473Z,13.15
2023-04-06T06:48:59.179Z,12.93
2023-04-06T06:50:04.906Z,12.93
2023-04-06T06:51:08.308Z,13.04
2023-04-06T06:52:14.017Z,12.94
2023-04-06T06:53:18.865Z,13.15
2023-04-06T06:54:22.133Z,13.01
2023-04-06T06:55:27.216Z,13.24
2023-04-06T06:56:30.558Z,13.30
2023-04-06T06:57:34.018Z,13.13
2023-04-06T06:58:36.742Z,13.22
2023-04-06T06:59:40.663Z,13.20
2023-04-06T07:00:44.033Z,13.30
2023-04-06T07:01:48.454Z,13.35
2023-04-06T07:02:52.040Z,13.31
2023-04-06T07:03:58.234Z,13.31
2023-04-06T07:05:15.993Z,13.26
2023-04-06T07:06:11.380Z,13.24
2023-04-06T07:07:17.562Z,13.42
2023-04-06T07:08:27.928Z,13.37
2023-04-06T07:09:32.330Z,13.27
2023-04-06T07:10:36.858Z,13.20
2023-04-06T07:11:40.143Z,13.23
2023-04-06T07:12:42.942Z,13.23
2023-04-06T07:13:46.539Z,13.21
2023-04-06T07:14:49.963Z,13.15
2023-04-06T07:15:54.599Z,13.13
2023-04-06T07:17:01.818Z,13.10
2023-04-06T07:18:06.353Z,13.02
2023-04-06T07:19:11.198Z,13.15
2023-04-06T07:20:14.864Z,13.09
2023-04-06T07:21:18.979Z,13.01
2023-04-06T07:22:23.459Z,13.01
2023-04-06T07:23:27.157Z,12.91
2023-04-06T07:24:29.843Z,12.99
2023-04-06T07:25:33.348Z,12.95
2023-04-06T07:26:37.777Z,12.90
2023-04-06T07:27:44.808Z,12.77
2023-04-06T07:28:49.356Z,12.73
2023-04-06T07:29:52.906Z,12.71
2023-04-06T07:30:57.842Z,12.65
2023-04-06T07:32:01.783Z,12.79
2023-04-06T07:33:05.728Z,12.82
2023-04-06T07:34:12.293Z,13.11
2023-04-06T07:35:16.297Z,13.01
2023-04-06T07:36:21.868Z,12.95
2023-04-06T07:37:25.675Z,12.98
2023-04-06T07:38:29.337Z,12.98
2023-04-06T07:39:32.901Z,13.07
2023-04-06T07:40:38.700Z,13.21
2023-04-06T07:41:42.523Z,13.36
2023-04-06T07:42:45.813Z,13.41
2023-04-06T07:43:50.163Z,13.58
2023-04-06T07:44:54.503Z,13.63
2023-04-06T07:45:59.105Z,13.61
2023-04-06T07:47:03.502Z,13.78
2023-04-06T07:48:06.687Z,14.09
2023-04-06T07:49:12.180Z,14.22
2023-04-06T07:50:17.671Z,14.13
2023-04-06T07:51:22.233Z,14.16
2023-04-06T07:52:25.723Z,14.00
2023-04-06T07:53:27.969Z,14.04
2023-04-06T07:54:31.902Z,14.00
2023-04-06T07:55:35.716Z,14.11
2023-04-06T07:56:39.225Z,13.87
2023-04-06T07:57:42.924Z,13.79
2023-04-06T07:58:46.441Z,13.72
2023-04-06T07:59:50.854Z,13.68
2023-04-06T08:00:55.673Z,13.63
2023-04-06T08:01:59.148Z,13.76
2023-04-06T08:03:03.802Z,13.68
2023-04-06T08:04:07.973Z,13.54
2023-04-06T08:05:10.710Z,13.51
2023-04-06T08:06:13.587Z,13.56
2023-04-06T08:07:15.946Z,13.46
2023-04-06T08:08:20.506Z,13.34
2023-04-06T08:09:26.294Z,13.54
2023-04-06T08:10:30.950Z,13.68
2023-04-06T08:11:34.345Z,13.61
2023-04-06T08:12:37.753Z,13.59
2023-04-06T08:13:41.267Z,13.70
2023-04-06T08:14:48.612Z,13.78
2023-04-06T08:15:50.890Z,14.10
2023-04-06T08:16:54.698Z,13.88
2023-04-06T08:17:58.670Z,14.01
2023-04-06T08:19:02.123Z,14.15
2023-04-06T08:20:06.350Z,14.15
2023-04-06T08:21:09.703Z,14.30
2023-04-06T08:22:13.575Z,14.28
2023-04-06T08:23:16.668Z,14.06
2023-04-06T08:24:19.331Z,13.99
2023-04-06T08:25:22.941Z,13.83
2023-04-06T08:26:29.791Z,13.84
2023-04-06T08:27:36.216Z,13.86
2023-04-06T08:28:39.722Z,13.96
2023-04-06T08:29:46.584Z,14.03
2023-04-06T08:30:49.097Z,13.93
2023-04-06T08:31:52.792Z,14.00
2023-04-06T08:32:56.374Z,13.92
2023-04-06T08:33:59.564Z,13.98
2023-04-06T08:35:02.009Z,13.83
2023-04-06T08:36:08.958Z,13.59
2023-04-06T08:37:13.870Z,13.51
2023-04-06T08:38:18.570Z,13.52
2023-04-06T08:39:26.728Z,13.62
2023-04-06T08:40:30.708Z,13.49
2023-04-06T08:41:35.879Z,13.43
2023-04-06T08:42:43.059Z,13.43
2023-04-06T08:43:48.321Z,13.38
2023-04-06T08:44:53.856Z,13.55
2023-04-06T08:46:00.680Z,13.46
2023-04-06T08:47:06.205Z,13.63
2023-04-06T08:48:09.103Z,13.62
2023-04-06T08:49:13.489Z,13.56
2023-04-06T08:50:17.397Z,13.50
2023-04-06T08:51:20.901Z,13.49
2023-04-06T08:52:25.273Z,13.32
2023-04-06T08:53:28.226Z,13.44
2023-04-06T08:54:31.739Z,13.57
2023-04-06T08:55:34.815Z,13.71
2023-04-06T08:56:39.862Z,13.65
2023-04-06T08:57:42.978Z,13.70
2023-04-06T08:58:47.823Z,13.55
2023-04-06T08:59:55.720Z,13.44
2023-04-06T09:01:00.958Z,13.48
2023-04-06T09:02:07.731Z,13.40
2023-04-06T09:03:13.531Z,13.58
2023-04-06T09:04:18.108Z,13.55
2023-04-06T09:05:21.504Z,13.65
2023-04-06T09:06:24.907Z,13.55
2023-04-06T09:07:28.728Z,13.53
2023-04-06T09:08:31.069Z,13.62
2023-04-06T09:09:36.641Z,13.55
2023-04-06T09:10:43.209Z,13.68
2023-04-06T09:11:51.850Z,13.79
2023-04-06T09:13:06.976Z,13.69
2023-04-06T09:14:12.421Z,13.79
2023-04-06T09:15:21.130Z,13.68
2023-04-06T09:16:27.302Z,13.68
2023-04-06T09:17:33.389Z,13.57
2023-04-06T09:18:38.167Z,13.52
2023-04-06T09:19:47.900Z,13.57
2023-04-06T09:20:53.286Z,13.55
2023-04-06T09:22:07.533Z,13.43
2023-04-06T09:23:15.382Z,13.26
2023-04-06T09:24:19.477Z,13.14
2023-04-06T09:25:24.773Z,12.98
2023-04-06T09:26:27.733Z,13.12
2023-04-06T09:27:32.401Z,13.11
2023-04-06T09:28:53.455Z,12.93
2023-04-06T09:29:58.955Z,13.06
2023-04-06T09:31:02.247Z,13.30
2023-04-06T09:32:06.698Z,13.35
2023-04-06T09:33:10.504Z,13.33
2023-04-06T09:34:17.019Z,13.17
2023-04-06T09:35:22.267Z,13.25
2023-04-06T09:36:33.861Z,12.88
2023-04-06T09:37:37.091Z,12.84
2023-04-06T09:38:42.960Z,13.02
2023-04-06T09:39:47.647Z,12.84
2023-04-06T09:41:01.330Z,12.73
2023-04-06T09:42:00.891Z,12.76
2023-04-06T09:43:08.945Z,12.75
2023-04-06T09:44:13.068Z,12.85
2023-04-06T09:45:17.797Z,12.78
2023-04-06T09:46:22.994Z,12.72
2023-04-06T09:47:31.372Z,12.78
2023-04-06T09:48:38.412Z,12.80
2023-04-06T09:49:42.754Z,12.78
2023-04-06T09:50:47.971Z,12.62
2023-04-06T09:51:52.185Z,12.68
2023-04-06T09:52:56.017Z,12.59
2023-04-06T09:54:06.610Z,12.47
2023-04-06T09:55:11.908Z,12.39
2023-04-06T09:56:16.106Z,12.45
2023-04-06T09:57:23.211Z,12.29
2023-04-06T09:58:32.434Z,12.17
2023-04-06T09:59:39.125Z,12.30
2023-04-06T10:00:46.356Z,12.45
2023-04-06T10:01:51.755Z,12.33
2023-04-06T10:03:00.518Z,12.38
2023-04-06T10:04:15.129Z,12.52
2023-04-06T10:05:20.576Z,12.35
2023-04-06T10:06:24.948Z,12.29
2023-04-06T10:07:28.690Z,12.46
2023-04-06T10:08:33.969Z,12.51
2023-04-06T10:09:37.860Z,12.40
2023-04-06T10:10:41.794Z,12.33
2023-04-06T10:11:46.317Z,12.33
2023-04-06T10:12:49.606Z,12.33
2023-04-06T10:13:54.012Z,12.47
2023-04-06T10:14:57.422Z,12.41
2023-04-06T10:16:03.870Z,12.53
2023-04-06T10:17:07.133Z,12.60
2023-04-06T10:18:10.843Z,12.45
2023-04-06T10:19:21.542Z,12.44
2023-04-06T10:20:30.759Z,12.61
2023-04-06T10:21:34.170Z,12.67
2023-04-06T10:22:39.361Z,12.71
2023-04-06T10:23:47.443Z,12.69
2023-04-06T10:24:50.946Z,12.57
2023-04-06T10:25:55.164Z,12.58
2023-04-06T10:27:03.062Z,12.68
2023-04-06T10:28:06.460Z,12.51
2023-04-06T10:29:09.567Z,12.60
2023-04-06T10:30:14.576Z,12.56
2023-04-06T10:31:19.901Z,12.57
2023-04-06T10:32:24.889Z,12.69
2023-04-06T10:33:27.710Z,12.68
2023-04-06T10:34:37.626Z,12.62
2023-04-06T10:35:40.488Z,12.55
2023-04-06T10:36:45.732Z,12.65
2023-04-06T10:37:50.704Z,12.76
2023-04-06T10:39:07.619Z,12.89
2023-04-06T10:40:12.815Z,12.87
2023-04-06T10:41:17.769Z,12.88
2023-04-06T10:42:22.902Z,12.89
2023-04-06T10:43:27.984Z,12.94
2023-04-06T10:44:30.724Z,12.93
2023-04-06T10:45:34.105Z,12.78
2023-04-06T10:46:37.293Z,12.95
2023-04-06T10:47:42.213Z,12.90
2023-04-06T10:48:49.996Z,12.81
2023-04-06T10:49:55.956Z,12.81
2023-04-06T10:50:58.847Z,12.72
2023-04-06T10:52:02.093Z,12.83
2023-04-06T10:53:04.846Z,12.76
2023-04-06T10:54:10.283Z,12.84
2023-04-06T10:55:14.152Z,12.95
2023-04-06T10:56:18.797Z,13.00
2023-04-06T10:57:23.698Z,12.71
2023-04-06T10:58:28.110Z,12.92
2023-04-06T10:59:32.580Z,12.91
2023-04-06T11:00:47.368Z,13.16
2023-04-06T11:01:44.502Z,13.14
2023-04-06T11:02:47.485Z,13.50
2023-04-06T11:03:55.005Z,13.52
2023-04-06T11:04:59.024Z,13.71
2023-04-06T11:06:03.114Z,13.80
2023-04-06T11:07:06.675Z,13.82
2023-04-06T11:08:09.906Z,13.82
2023-04-06T11:09:13.335Z,13.70
2023-04-06T11:10:20.883Z,13.65
2023-04-06T11:11:27.099Z,13.77
2023-04-06T11:12:31.526Z,13.81
2023-04-06T11:13:43.974Z,13.77
2023-04-06T11:14:56.714Z,13.68
2023-04-06T11:16:00.436Z,13.93
2023-04-06T11:17:04.675Z,13.94
2023-04-06T11:18:09.001Z,14.09
2023-04-06T11:19:13.896Z,14.25
2023-04-06T11:20:17.255Z,14.24
2023-04-06T11:21:21.312Z,14.52
2023-04-06T11:22:23.907Z,14.37
2023-04-06T11:23:28.201Z,14.25
2023-04-06T11:24:31.468Z,14.40
2023-04-06T11:25:33.761Z,14.49
2023-04-06T11:26:40.844Z,14.52
2023-04-06T11:27:43.970Z,14.38
2023-04-06T11:28:46.623Z,14.32
2023-04-06T11:29:51.193Z,14.59
2023-04-06T11:30:54.654Z,14.84
2023-04-06T11:32:01.975Z,15.14
2023-04-06T11:33:06.163Z,14.96
2023-04-06T11:34:12.290Z,14.88
2023-04-06T11:35:25.050Z,14.52
2023-04-06T11:36:31.630Z,14.44
2023-04-06T11:37:34.650Z,14.31
2023-04-06T11:38:43.353Z,14.43
2023-04-06T11:39:53.566Z,14.22
2023-04-06T11:40:56.294Z,14.14
2023-04-06T11:42:09.040Z,14.16
2023-04-06T11:43:13.028Z,14.02
2023-04-06T11:44:16.705Z,13.84
2023-04-06T11:45:19.047Z,14.03
2023-04-06T11:46:23.131Z,14.04
2023-04-06T11:47:34.006Z,13.81
2023-04-06T11:48:40.476Z,14.21
2023-04-06T11:49:46.053Z,14.21
2023-04-06T11:50:51.111Z,13.98
2023-04-06T11:51:53.817Z,13.92
2023-04-06T11:53:04.459Z,14.00
2023-04-06T11:54:08.932Z,14.33
2023-04-06T11:55:15.586Z,14.39
2023-04-06T11:56:25.836Z,14.46
2023-04-06T11:57:29.348Z,14.42
2023-04-06T11:58:31.960Z,14.37
2023-04-06T11:59:35.744Z,14.32
2023-04-06T12:00:39.077Z,14.67
2023-04-06T12:01:47.234Z,14.91
2023-04-06T12:02:50.653Z,14.77
2023-04-06T12:03:54.481Z,14.80
2023-04-06T12:04:59.026Z,14.76
2023-04-06T12:06:02.403Z,14.64
2023-04-06T12:07:05.916Z,14.36
2023-04-06T12:08:09.507Z,14.18
2023-04-06T12:09:12.893Z,14.21
2023-04-06T12:10:16.345Z,13.84
2023-04-06T12:11:22.207Z,13.97
2023-04-06T12:12:25.186Z,14.55
2023-04-06T12:13:29.022Z,14.86
2023-04-06T12:14:32.423Z,15.05
2023-04-06T12:15:37.764Z,14.94
2023-04-06T12:16:42.081Z,14.79
2023-04-06T12:17:45.143Z,14.77
2023-04-06T12:18:48.481Z,14.72
2023-04-06T12:19:51.316Z,14.55
2023-04-06T12:20:59.660Z,14.78
2023-04-06T12:22:03.480Z,15.09
2023-04-06T12:23:07.038Z,15.15
2023-04-06T12:24:11.309Z,15.28
2023-04-06T12:25:14.615Z,15.10
2023-04-06T12:26:16.936Z,14.85
2023-04-06T12:27:21.139Z,14.59
2023-04-06T12:28:25.652Z,14.55
2023-04-06T12:29:28.804Z,14.61
2023-04-06T12:30:32.029Z,14.70
2023-04-06T12:31:39.325Z,14.62
2023-04-06T12:32:42.523Z,14.48
2023-04-06T12:33:48.240Z,14.29
2023-04-06T12:34:54.527Z,14.17
2023-04-06T12:35:57.390Z,14.18
2023-04-06T12:37:01.945Z,14.05
2023-04-06T12:38:05.387Z,14.12
2023-04-06T12:39:07.596Z,14.28
2023-04-06T12:40:13.178Z,14.35
2023-04-06T12:41:17.695Z,14.46
2023-04-06T12:42:20.767Z,14.28
2023-04-06T12:44:30.513Z,14.14
2023-04-06T12:45:33.792Z,13.91
2023-04-06T12:46:37.878Z,13.81
2023-04-06T12:47:40.971Z,13.78
2023-04-06T12:48:45.155Z,13.81
2023-04-06T12:49:48.365Z,13.87
2023-04-06T12:50:59.152Z,13.79
2023-04-06T12:52:03.608Z,13.69
2023-04-06T12:53:07.050Z,13.52
2023-04-06T12:54:10.312Z,13.66
2023-04-06T12:55:13.404Z,13.58
2023-04-06T12:56:18.592Z,13.65
2023-04-06T12:57:22.726Z,13.79
2023-04-06T12:58:28.012Z,13.62
2023-04-06T12:59:33.105Z,13.47
2023-04-06T13:00:36.358Z,13.41
2023-04-06T13:01:41.701Z,13.27
2023-04-06T13:02:47.222Z,13.34
2023-04-06T13:03:51.215Z,13.31
2023-04-06T13:04:54.311Z,13.18
2023-04-06T13:05:58.909Z,13.15
2023-04-06T13:07:02.103Z,12.98
2023-04-06T13:08:06.485Z,12.84
2023-04-06T13:09:11.941Z,12.84
2023-04-06T13:10:15.247Z,12.82
2023-04-06T13:11:18.657Z,12.72
2023-04-06T13:12:23.182Z,12.75
2023-04-06T13:13:27.117Z,12.84
2023-04-06T13:14:30.491Z,12.79
2023-04-06T13:15:33.224Z,12.77
2023-04-06T13:16:38.854Z,12.86
2023-04-06T13:17:42.118Z,12.78
2023-04-06T13:18:47.424Z,12.82
2023-04-06T13:19:51.762Z,12.94
2023-04-06T13:20:58.703Z,13.06
2023-04-06T13:22:02.228Z,12.90
2023-04-06T13:23:05.387Z,13.18
2023-04-06T13:24:08.889Z,13.24
2023-04-06T13:25:13.188Z,13.56
2023-04-06T13:26:18.176Z,13.61
2023-04-06T13:27:21.715Z,13.59
2023-04-06T13:28:24.911Z,13.59
2023-04-06T13:29:28.631Z,13.36
2023-04-06T13:30:32.236Z,13.45
2023-04-06T13:31:35.385Z,13.51
2023-04-06T13:32:40.724Z,13.65
2023-04-06T13:33:44.247Z,13.73
2023-04-06T13:34:50.412Z,13.82
2023-04-06T13:35:53.887Z,13.63
2023-04-06T13:36:57.281Z,13.69
2023-04-06T13:38:00.084Z,13.83
2023-04-06T13:39:02.291Z,13.83
2023-04-06T13:40:09.838Z,13.64
2023-04-06T13:41:26.141Z,13.73
2023-04-06T13:42:33.042Z,13.92
2023-04-06T13:43:36.091Z,13.85
2023-04-06T13:44:41.263Z,13.74
2023-04-06T13:45:46.476Z,13.63
2023-04-06T13:46:49.825Z,13.89
2023-04-06T13:47:56.372Z,13.68
2023-04-06T13:49:00.861Z,13.47
2023-04-06T13:50:04.681Z,13.66
2023-04-06T13:51:14.228Z,13.77
2023-04-06T13:52:17.321Z,13.77
2023-04-06T13:53:20.831Z,13.71
2023-04-06T13:54:27.459Z,13.84
2023-04-06T13:55:35.859Z,13.92
2023-04-06T13:56:39.315Z,13.95
2023-04-06T13:57:43.930Z,14.06
2023-04-06T13:58:47.179Z,13.74